createdAt,value
2022-09-20T00:01:23.496Z,90.00
2022-09-20T00:03:55.250Z,90.00
2022-09-20T00:06:29.120Z,90.00
2022-09-20T00:08:59.731Z,89.80
2022-09-20T00:11:34.831Z,90.10
2022-09-20T00:14:08.786Z,90.40
2022-09-20T00:16:42.186Z,90.10
2022-09-20T00:19:17.124Z,90.00
2022-09-20T00:21:46.693Z,89.90
2022-09-20T00:24:14.126Z,90.00
2022-09-20T00:26:46.092Z,90.00
2022-09-20T00:29:13.847Z,90.10
2022-09-20T00:31:42.960Z,90.10
2022-09-20T00:34:29.805Z,90.20
2022-09-20T00:36:59.560Z,90.30
2022-09-20T00:39:27.034Z,90.30
2022-09-20T00:41:54.399Z,90.30
2022-09-20T00:44:47.880Z,90.40
2022-09-20T00:47:39.327Z,90.40
2022-09-20T00:50:34.855Z,90.50
2022-09-20T00:53:16.837Z,90.40
2022-09-20T00:55:49.793Z,90.40
2022-09-20T00:58:19.897Z,90.30
2022-09-20T01:00:48.855Z,90.20
2022-09-20T01:03:22.945Z,90.20
2022-09-20T01:05:52.182Z,90.20
2022-09-20T01:08:25.296Z,90.20
2022-09-20T01:10:53.323Z,90.30
2022-09-20T01:13:20.674Z,90.40
2022-09-20T01:15:49.401Z,90.50
2022-09-20T01:18:18.816Z,90.50
2022-09-20T01:20:48.345Z,90.50
2022-09-20T01:23:24.160Z,90.50
2022-09-20T01:26:12.877Z,90.30
2022-09-20T01:28:45.220Z,90.20
2022-09-20T01:31:23.917Z,90.30
2022-09-20T01:34:11.429Z,90.40
2022-09-20T01:36:43.512Z,90.20
2022-09-20T01:40:03.905Z,90.40
2022-09-20T01:42:38.135Z,90.20
2022-09-20T01:45:27.601Z,90.10
2022-09-20T01:48:17.228Z,90.10
2022-09-20T01:51:06.207Z,90.20
2022-09-20T01:54:06.377Z,90.20
2022-09-20T01:56:54.524Z,90.20
2022-09-20T01:59:30.861Z,90.30
2022-09-20T02:02:30.353Z,90.20
2022-09-20T02:05:38.982Z,90.20
2022-09-20T02:08:15.432Z,90.10
2022-09-20T02:11:20.604Z,90.10
2022-09-20T02:13:55.367Z,90.00
2022-09-20T02:16:28.304Z,90.10
2022-09-20T02:19:35.511Z,90.10
2022-09-20T02:22:37.252Z,89.70
2022-09-20T02:25:21.118Z,89.50
2022-09-20T02:28:22.487Z,90.10
2022-09-20T02:30:55.823Z,90.00
2022-09-20T02:33:42.205Z,90.00
2022-09-20T02:36:36.172Z,89.70
2022-09-20T02:39:37.027Z,89.90
2022-09-20T02:42:13.687Z,90.00
2022-09-20T02:44:58.240Z,89.70
2022-09-20T02:47:35.440Z,89.60
2022-09-20T02:50:06.349Z,89.10
2022-09-20T02:52:57.606Z,89.30
2022-09-20T02:55:42.417Z,89.20
2022-09-20T02:58:31.477Z,89.80
2022-09-20T03:01:20.139Z,90.20
2022-09-20T03:03:47.471Z,90.60
2022-09-20T03:07:05.830Z,90.90
2022-09-20T03:10:05.838Z,90.60
2022-09-20T03:13:00.529Z,90.50
2022-09-20T03:15:53.400Z,90.50
2022-09-20T03:18:23.747Z,90.40
2022-09-20T03:21:22.795Z,90.50
2022-09-20T03:24:18.174Z,90.50
2022-09-20T03:26:54.024Z,90.60
2022-09-20T03:30:00.058Z,90.80
2022-09-20T03:32:54.851Z,90.60
2022-09-20T03:35:24.979Z,90.70
2022-09-20T03:38:16.184Z,90.90
2022-09-20T03:41:01.709Z,90.70
2022-09-20T03:43:49.527Z,90.90
2022-09-20T03:46:28.112Z,90.70
2022-09-20T03:49:35.627Z,90.80
2022-09-20T03:52:14.315Z,90.70
2022-09-20T03:55:02.515Z,90.70
2022-09-20T03:57:51.076Z,90.70
2022-09-20T04:00:34.002Z,91.00
2022-09-20T04:03:11.358Z,91.20
2022-09-20T04:05:57.423Z,91.00
2022-09-20T04:08:43.677Z,91.20
2022-09-20T04:11:37.691Z,91.00
2022-09-20T04:14:45.594Z,90.90
2022-09-20T04:17:48.580Z,90.80
2022-09-20T04:20:21.193Z,90.90
2022-09-20T04:22:54.328Z,91.20
2022-09-20T04:25:29.090Z,91.30
2022-09-20T04:28:11.735Z,91.30
2022-09-20T04:30:44.119Z,91.20
2022-09-20T04:33:29.102Z,91.30
2022-09-20T04:36:30.591Z,91.20
2022-09-20T04:39:55.489Z,91.30
2022-09-20T04:42:54.693Z,91.10
2022-09-20T04:45:37.306Z,91.20
2022-09-20T04:48:10.333Z,91.20
2022-09-20T04:50:58.789Z,91.30
2022-09-20T04:53:44.046Z,91.30
2022-09-20T04:56:30.089Z,91.20
2022-09-20T04:59:05.993Z,91.20
2022-09-20T05:01:58.343Z,91.20
2022-09-20T05:05:14.581Z,91.00
2022-09-20T05:08:16.196Z,91.00
2022-09-20T05:11:17.339Z,90.90
2022-09-20T05:14:05.192Z,91.00
2022-09-20T05:16:59.725Z,91.10
2022-09-20T05:19:41.553Z,91.10
2022-09-20T05:22:27.400Z,91.30
2022-09-20T05:25:06.654Z,91.00
2022-09-20T05:28:00.314Z,91.20
2022-09-20T05:30:47.362Z,91.30
2022-09-20T05:33:22.187Z,91.30
2022-09-20T05:36:02.380Z,91.50
2022-09-20T05:38:49.884Z,91.60
2022-09-20T05:41:34.743Z,91.40
2022-09-20T05:44:22.311Z,91.60
2022-09-20T05:47:19.468Z,91.50
2022-09-20T05:50:15.014Z,91.50
2022-09-20T05:52:51.718Z,91.50
2022-09-20T05:55:42.767Z,91.40
2022-09-20T05:58:47.352Z,91.30
2022-09-20T06:01:34.792Z,91.20
2022-09-20T06:04:18.640Z,91.30
2022-09-20T06:07:01.712Z,91.50
2022-09-20T06:09:46.256Z,91.60
2022-09-20T06:12:30.777Z,91.50
2022-09-20T06:15:02.630Z,91.70
2022-09-20T06:18:18.959Z,91.60
2022-09-20T06:21:25.661Z,91.30
2022-09-20T06:23:58.794Z,91.40
2022-09-20T06:26:31.633Z,91.50
2022-09-20T06:29:08.362Z,91.40
2022-09-20T06:31:38.265Z,91.40
2022-09-20T06:34:10.075Z,91.50
2022-09-20T06:37:00.757Z,91.70
2022-09-20T06:39:57.251Z,91.80
2022-09-20T06:42:27.587Z,91.80
2022-09-20T06:44:58.101Z,91.70
2022-09-20T06:47:26.166Z,91.60
2022-09-20T06:49:56.674Z,91.50
2022-09-20T06:52:24.092Z,91.50
2022-09-20T06:54:56.200Z,91.70
2022-09-20T06:57:38.683Z,91.80
2022-09-20T07:00:13.594Z,91.70
2022-09-20T07:02:43.600Z,91.90
2022-09-20T07:05:15.138Z,92.00
2022-09-20T07:07:44.059Z,92.00
2022-09-20T07:10:12.348Z,92.00
2022-09-20T07:12:39.791Z,91.70
2022-09-20T07:15:12.960Z,91.70
2022-09-20T07:17:47.309Z,91.60
2022-09-20T07:20:18.404Z,91.50
2022-09-20T07:22:49.321Z,91.70
2022-09-20T07:25:18.321Z,91.40
2022-09-20T07:27:46.712Z,91.20
2022-09-20T07:30:15.062Z,91.50
2022-09-20T07:32:44.619Z,91.70
2022-09-20T07:35:12.550Z,91.90
2022-09-20T07:37:42.831Z,91.90
2022-09-20T07:40:14.707Z,91.40
2022-09-20T07:42:46.099Z,91.10
2022-09-20T07:45:13.631Z,90.90
2022-09-20T07:47:44.943Z,90.70
2022-09-20T07:50:12.581Z,91.80
2022-09-20T07:52:39.972Z,92.10
2022-09-20T07:55:07.706Z,92.00
2022-09-20T07:57:38.363Z,92.40
2022-09-20T08:00:08.566Z,92.40
2022-09-20T08:02:38.622Z,92.90
2022-09-20T08:05:08.639Z,93.20
2022-09-20T08:07:39.440Z,93.30
2022-09-20T08:10:09.596Z,93.30
2022-09-20T08:15:35.524Z,93.20
2022-09-20T08:18:08.515Z,93.40
2022-09-20T08:20:42.109Z,93.60
2022-09-20T08:23:23.369Z,93.50
2022-09-20T08:25:51.721Z,93.30
2022-09-20T08:28:21.323Z,93.20
2022-09-20T08:30:49.137Z,93.30
2022-09-20T08:33:16.667Z,93.60
2022-09-20T08:35:44.203Z,93.80
2022-09-20T08:41:32.395Z,93.30
2022-09-20T08:44:26.762Z,92.90
2022-09-20T08:47:21.499Z,93.00
2022-09-20T08:49:56.959Z,93.20
2022-09-20T08:52:37.096Z,93.80
2022-09-20T08:55:17.676Z,93.90
2022-09-20T08:57:54.209Z,93.80
2022-09-20T09:00:24.582Z,93.80
2022-09-20T09:03:00.189Z,93.90
2022-09-20T09:05:36.493Z,93.80
2022-09-20T09:08:27.552Z,94.00
2022-09-20T09:10:59.015Z,94.40
2022-09-20T09:13:33.020Z,94.70
2022-09-20T09:16:10.952Z,94.80
2022-09-20T09:18:42.367Z,94.50
2022-09-20T09:21:17.760Z,94.60
2022-09-20T09:24:04.994Z,94.60
2022-09-20T09:26:40.811Z,93.60
2022-09-20T09:29:17.595Z,93.10
2022-09-20T09:31:53.431Z,92.50
2022-09-20T09:34:24.123Z,91.90
2022-09-20T09:36:51.714Z,91.50
2022-09-20T09:39:29.208Z,91.30
2022-09-20T09:42:01.376Z,91.10
2022-09-20T09:44:33.298Z,90.80
2022-09-20T09:47:01.038Z,90.90
2022-09-20T09:49:36.225Z,90.70
2022-09-20T09:52:33.342Z,90.60
2022-09-20T09:55:05.891Z,90.00
2022-09-20T09:57:54.125Z,90.50
2022-09-20T10:00:27.409Z,90.50
2022-09-20T10:03:27.891Z,91.10
2022-09-20T10:06:04.593Z,90.90
2022-09-20T10:08:49.498Z,91.50
2022-09-20T10:11:38.035Z,90.90
2022-09-20T10:14:14.237Z,90.70
2022-09-20T10:17:06.024Z,90.50
2022-09-20T10:19:39.341Z,88.80
2022-09-20T10:22:09.472Z,89.60
2022-09-20T10:25:03.231Z,88.90
2022-09-20T10:28:01.679Z,87.90
2022-09-20T10:31:01.768Z,87.40
2022-09-20T10:33:29.120Z,86.40
2022-09-20T10:36:40.795Z,87.10
2022-09-20T10:39:37.524Z,86.70
2022-09-20T10:42:44.131Z,87.90
2022-09-20T10:45:50.961Z,90.50
2022-09-20T10:48:32.474Z,91.40
2022-09-20T10:51:20.692Z,91.40
2022-09-20T10:54:06.307Z,91.60
2022-09-20T10:56:36.919Z,90.20
2022-09-20T10:59:19.258Z,91.00
2022-09-20T11:02:05.165Z,90.40
2022-09-20T11:05:08.582Z,88.70
2022-09-20T11:07:42.938Z,86.50
2022-09-20T11:10:21.843Z,85.80
2022-09-20T11:13:08.378Z,84.60
2022-09-20T11:16:00.357Z,82.90
2022-09-20T11:18:35.809Z,80.00
2022-09-20T11:21:20.087Z,80.00
2022-09-20T11:24:05.227Z,79.70
2022-09-20T11:26:41.218Z,79.80
2022-09-20T11:29:17.342Z,79.40
2022-09-20T11:31:51.902Z,79.20
2022-09-20T11:34:31.096Z,80.40
2022-09-20T11:37:03.344Z,81.50
2022-09-20T11:39:48.156Z,83.20
2022-09-20T11:42:21.982Z,83.00
2022-09-20T11:44:50.504Z,83.40
2022-09-20T11:47:42.839Z,84.00
2022-09-20T11:50:47.484Z,85.40
2022-09-20T11:53:36.636Z,87.10
2022-09-20T11:56:17.679Z,90.50
2022-09-20T11:58:49.494Z,91.10
2022-09-20T12:01:28.287Z,90.70
2022-09-20T12:04:38.400Z,91.20
2022-09-20T12:07:20.286Z,91.10
2022-09-20T12:10:00.917Z,90.80
2022-09-20T12:12:39.187Z,90.30
2022-09-20T12:15:28.041Z,86.50
2022-09-20T12:18:04.350Z,87.90
2022-09-20T12:20:42.577Z,86.00
2022-09-20T12:23:41.354Z,85.20
2022-09-20T12:26:14.794Z,81.80
2022-09-20T12:28:52.809Z,82.30
2022-09-20T12:31:34.656Z,84.00
2022-09-20T12:34:13.750Z,83.20
2022-09-20T12:37:05.352Z,81.20
2022-09-20T12:39:38.947Z,82.40
2022-09-20T12:42:35.955Z,81.40
2022-09-20T12:45:15.106Z,81.50
2022-09-20T12:47:55.859Z,84.50
2022-09-20T12:50:42.363Z,81.30
2022-09-20T12:53:17.223Z,82.50
2022-09-20T12:56:05.368Z,78.60
2022-09-20T12:59:05.553Z,74.10
2022-09-20T13:01:38.232Z,71.00
2022-09-20T13:04:46.004Z,70.10
2022-09-20T13:07:53.841Z,67.70
2022-09-20T13:10:25.529Z,67.50
2022-09-20T13:12:57.495Z,67.70
2022-09-20T13:15:28.158Z,66.30
2022-09-20T13:18:01.431Z,64.20
2022-09-20T13:20:34.675Z,62.20
2022-09-20T13:23:06.678Z,61.20
2022-09-20T13:25:36.577Z,59.70
2022-09-20T13:28:21.184Z,60.30
2022-09-20T13:30:49.279Z,58.60
2022-09-20T13:33:23.264Z,59.50
2022-09-20T13:35:54.695Z,59.20
2022-09-20T13:38:27.983Z,57.30
2022-09-20T13:41:04.802Z,59.80
2022-09-20T13:43:44.619Z,57.60
2022-09-20T13:46:35.667Z,66.40
2022-09-20T13:49:25.731Z,69.30
2022-09-20T13:51:53.316Z,72.60
2022-09-20T13:54:27.863Z,78.00
2022-09-20T13:57:04.120Z,78.20
2022-09-20T13:59:36.562Z,79.00
2022-09-20T14:02:23.034Z,80.80
2022-09-20T14:04:56.076Z,80.30
2022-09-20T14:07:26.287Z,83.00
2022-09-20T14:09:54.335Z,83.70
2022-09-20T14:12:24.029Z,82.90
2022-09-20T14:14:54.566Z,83.70
2022-09-20T14:17:26.167Z,84.80
2022-09-20T14:19:56.235Z,84.80
2022-09-20T14:22:26.955Z,82.90
2022-09-20T14:25:14.179Z,85.30
2022-09-20T14:27:46.374Z,85.30
2022-09-20T14:30:40.195Z,85.40
2022-09-20T14:33:19.495Z,83.70
2022-09-20T14:35:51.803Z,84.40
2022-09-20T14:38:24.769Z,85.50
2022-09-20T14:40:54.663Z,85.50
2022-09-20T14:43:31.447Z,86.10
2022-09-20T14:46:01.976Z,86.90
2022-09-20T14:48:38.964Z,87.00
2022-09-20T14:51:19.341Z,87.40
2022-09-20T14:53:52.874Z,86.90
2022-09-20T14:56:34.308Z,85.50
2022-09-20T14:59:13.966Z,84.50
2022-09-20T15:02:13.466Z,84.30
2022-09-20T15:04:51.824Z,83.60
2022-09-20T15:07:19.257Z,85.40
2022-09-20T15:09:47.050Z,85.60
2022-09-20T15:12:19.932Z,85.60
2022-09-20T15:14:48.484Z,84.10
2022-09-20T15:17:20.794Z,84.20
2022-09-20T15:19:53.761Z,84.00
2022-09-20T15:22:23.826Z,84.40
2022-09-20T15:24:51.242Z,85.20
2022-09-20T15:27:18.597Z,85.60
2022-09-20T15:29:46.032Z,85.90
2022-09-20T15:32:13.365Z,85.80
2022-09-20T15:34:43.265Z,85.30
2022-09-20T15:37:10.558Z,85.50
2022-09-20T15:39:39.966Z,85.50
2022-09-20T15:42:07.707Z,85.50
2022-09-20T15:44:35.056Z,85.90
2022-09-20T15:47:05.071Z,85.60
2022-09-20T15:49:33.345Z,84.70
2022-09-20T15:52:01.037Z,84.80
2022-09-20T15:54:28.358Z,84.50
2022-09-20T15:56:58.426Z,83.60
2022-09-20T15:59:26.245Z,83.60
2022-09-20T16:01:53.623Z,83.60
2022-09-20T16:04:22.218Z,83.30
2022-09-20T16:06:52.062Z,82.50
2022-09-20T16:09:21.928Z,82.40
2022-09-20T16:11:51.883Z,82.20
2022-09-20T16:14:21.309Z,82.60
2022-09-20T16:16:48.645Z,82.40
2022-09-20T16:19:21.368Z,82.80
2022-09-20T16:21:58.156Z,82.50
2022-09-20T16:24:28.778Z,82.50
2022-09-20T16:26:56.985Z,83.00
2022-09-20T16:29:25.790Z,83.20
2022-09-20T16:31:55.277Z,83.40
2022-09-20T16:34:31.274Z,82.80
2022-09-20T16:37:07.907Z,82.00
2022-09-20T16:39:37.948Z,80.20
2022-09-20T16:42:07.583Z,82.00
2022-09-20T16:44:37.035Z,81.50
2022-09-20T16:47:11.712Z,80.20
2022-09-20T16:49:39.660Z,80.40
2022-09-20T16:52:10.276Z,79.50
2022-09-20T16:54:37.588Z,79.60
2022-09-20T16:57:05.229Z,78.10
2022-09-20T16:59:32.841Z,78.70
2022-09-20T17:02:00.168Z,78.80
2022-09-20T17:04:27.940Z,79.70
2022-09-20T17:06:55.678Z,78.90
2022-09-20T17:09:25.287Z,79.00
2022-09-20T17:11:55.047Z,80.10
2022-09-20T17:14:25.507Z,79.30
2022-09-20T17:16:52.895Z,79.10
2022-09-20T17:19:21.077Z,78.90
2022-09-20T17:21:51.781Z,79.10
2022-09-20T17:24:20.924Z,79.30
2022-09-20T17:26:51.787Z,79.40
2022-09-20T17:29:21.914Z,79.20
2022-09-20T17:31:55.658Z,79.20
2022-09-20T17:34:28.111Z,79.00
2022-09-20T17:36:58.365Z,77.90
2022-09-20T17:39:28.258Z,78.20
2022-09-20T17:41:58.331Z,77.30
2022-09-20T17:44:28.260Z,76.70
2022-09-20T17:46:55.760Z,77.10
2022-09-20T17:49:24.212Z,77.70
2022-09-20T17:51:56.185Z,78.30
2022-09-20T17:54:24.607Z,78.50
2022-09-20T17:56:55.696Z,79.20
2022-09-20T17:59:26.091Z,79.00
2022-09-20T18:01:56.186Z,79.10
2022-09-20T18:04:25.215Z,79.20
2022-09-20T18:06:54.374Z,79.00
2022-09-20T18:09:24.851Z,78.90
2022-09-20T18:11:56.546Z,79.00
2022-09-20T18:14:28.060Z,79.00
2022-09-20T18:17:01.277Z,78.50
2022-09-20T18:19:34.727Z,78.00
2022-09-20T18:22:03.262Z,78.20
2022-09-20T18:24:30.777Z,78.70
2022-09-20T18:27:01.188Z,78.60
2022-09-20T18:29:36.837Z,78.60
2022-09-20T18:32:08.668Z,78.40
2022-09-20T18:34:36.019Z,78.90
2022-09-20T18:37:10.012Z,79.00
2022-09-20T18:39:40.271Z,79.50
2022-09-20T18:42:08.087Z,79.10
2022-09-20T18:44:35.505Z,79.10
2022-09-20T18:47:05.855Z,78.60
2022-09-20T18:49:33.426Z,79.10
2022-09-20T18:52:00.934Z,79.30
2022-09-20T18:54:33.423Z,79.40
2022-09-20T18:57:01.182Z,78.80
2022-09-20T18:59:34.234Z,79.30
2022-09-20T19:02:43.087Z,79.40
2022-09-20T19:05:32.468Z,78.60
2022-09-20T19:08:25.688Z,77.80
2022-09-20T19:11:03.748Z,78.40
2022-09-20T19:13:48.402Z,78.60
2022-09-20T19:16:41.579Z,78.40
2022-09-20T19:19:44.488Z,78.50
2022-09-20T19:22:34.904Z,78.00
2022-09-20T19:25:02.201Z,77.90
2022-09-20T19:27:29.937Z,78.80
2022-09-20T19:29:57.476Z,78.00
2022-09-20T19:32:30.792Z,78.30
2022-09-20T19:35:01.891Z,78.70
2022-09-20T19:37:53.678Z,78.90
2022-09-20T19:40:25.123Z,78.30
2022-09-20T19:43:00.164Z,79.20
2022-09-20T19:45:35.221Z,79.00
2022-09-20T19:48:18.873Z,78.20
2022-09-20T19:50:52.935Z,77.70
2022-09-20T19:53:23.820Z,77.10
2022-09-20T19:56:03.350Z,78.30
2022-09-20T19:58:31.136Z,77.50
2022-09-20T20:01:01.142Z,78.70
2022-09-20T20:03:29.915Z,78.60
2022-09-20T20:06:08.919Z,78.40
2022-09-20T20:08:59.867Z,77.80
2022-09-20T20:11:59.590Z,77.50
2022-09-20T20:14:48.195Z,78.00
2022-09-20T20:17:55.980Z,77.20
2022-09-20T20:20:37.155Z,77.20
2022-09-20T20:23:29.780Z,77.30
2022-09-20T20:26:10.208Z,77.70
2022-09-20T20:28:42.426Z,77.90
2022-09-20T20:31:12.352Z,78.30
2022-09-20T20:33:40.587Z,78.10
2022-09-20T20:36:09.265Z,78.20
2022-09-20T20:38:37.635Z,78.10
2022-09-20T20:41:11.932Z,78.30
2022-09-20T20:43:43.627Z,78.30
2022-09-20T20:46:20.196Z,78.00
2022-09-20T20:48:49.538Z,77.60
2022-09-20T20:51:22.226Z,78.20
2022-09-20T20:53:52.879Z,78.10
2022-09-20T20:56:27.819Z,78.30
2022-09-20T20:59:01.490Z,78.50
2022-09-20T21:01:32.239Z,78.50
2022-09-20T21:04:01.276Z,78.40
2022-09-20T21:06:32.268Z,78.60
2022-09-20T21:09:00.656Z,78.60
2022-09-20T21:11:31.239Z,78.80
2022-09-20T21:14:00.499Z,78.70
2022-09-20T21:16:37.021Z,78.70
2022-09-20T21:19:05.978Z,78.20
2022-09-20T21:21:42.182Z,78.70
2022-09-20T21:24:14.778Z,78.70
2022-09-20T21:26:45.711Z,78.50
2022-09-20T21:29:21.160Z,78.70
2022-09-20T21:31:48.573Z,79.00
2022-09-20T21:34:18.560Z,79.40
2022-09-20T21:36:45.951Z,79.30
2022-09-20T21:39:15.665Z,79.30
2022-09-20T21:41:46.075Z,79.30
2022-09-20T21:44:14.926Z,79.30
2022-09-20T21:46:45.078Z,79.30
2022-09-20T21:49:14.325Z,79.50
2022-09-20T21:51:45.241Z,79.50
2022-09-20T21:54:12.793Z,79.50
2022-09-20T21:56:41.403Z,79.60
2022-09-20T21:59:09.506Z,79.60
2022-09-20T22:01:39.282Z,79.60
2022-09-20T22:04:13.463Z,79.50
2022-09-20T22:06:42.831Z,79.60
2022-09-20T22:09:14.593Z,79.80
2022-09-20T22:11:45.451Z,79.80
2022-09-20T22:14:18.384Z,79.20
2022-09-20T22:16:51.903Z,79.80
2022-09-20T22:19:20.413Z,80.10
2022-09-20T22:21:50.911Z,80.20
2022-09-20T22:24:18.608Z,80.20
2022-09-20T22:26:50.635Z,80.30
2022-09-20T22:29:22.102Z,80.10
2022-09-20T22:31:50.230Z,80.10
2022-09-20T22:34:20.852Z,80.10
2022-09-20T22:36:50.872Z,80.00
2022-09-20T22:39:18.542Z,80.00
2022-09-20T22:41:47.908Z,80.10
2022-09-20T22:44:17.897Z,80.00
2022-09-20T22:46:47.767Z,80.00
2022-09-20T22:49:15.594Z,79.90
2022-09-20T22:51:43.151Z,80.10
2022-09-20T22:54:12.591Z,80.00
2022-09-20T22:56:45.410Z,80.10
2022-09-20T22:59:14.492Z,80.40
2022-09-20T23:01:44.398Z,80.60
2022-09-20T23:04:14.621Z,80.80
2022-09-20T23:07:00.881Z,81.20
2022-09-20T23:09:30.881Z,81.30
2022-09-20T23:12:02.767Z,81.80
2022-09-20T23:14:30.044Z,81.80
2022-09-20T23:16:57.448Z,81.70
2022-09-20T23:19:24.771Z,81.40
2022-09-20T23:21:52.040Z,81.10
2022-09-20T23:24:21.526Z,80.90
2022-09-20T23:26:49.103Z,80.80
2022-09-20T23:29:17.206Z,80.80
2022-09-20T23:31:47.140Z,80.80
2022-09-20T23:34:16.169Z,81.00
2022-09-20T23:36:44.726Z,81.30
2022-09-20T23:39:15.026Z,81.50
2022-09-20T23:41:44.850Z,81.70
2022-09-20T23:44:18.632Z,81.80
2022-09-20T23:46:45.943Z,81.90
2022-09-20T23:49:15.757Z,82.00
2022-09-20T23:51:43.042Z,82.30
2022-09-20T23:54:12.711Z,82.40
2022-09-20T23:56:42.849Z,82.40
2022-09-20T23:59:14.772Z,82.30
